sensor_id;sensor_type;location;lat;lon;timestamp;P1;durP1;ratioP1;P2;durP2;ratioP2
56629;SDS011;42502;40.732;-74.254;2023-06-10T00:00:53;12.10;;;6.07;;
56629;SDS011;42502;40.732;-74.254;2023-06-10T00:02:56;19.17;;;7.18;;
56629;SDS011;42502;40.732;-74.254;2023-06-10T00:04:56;12.20;;;5.95;;
56629;SDS011;42502;40.732;-74.254;2023-06-10T00:06:57;13.77;;;5.35;;
56629;SDS011;42502;40.732;-74.254;2023-06-10T00:08:58;11.18;;;5.47;;
56629;SDS011;42502;40.732;-74.254;2023-06-10T00:10:59;21.90;;;7.10;;
56629;SDS011;42502;40.732;-74.254;2023-06-10T00:13:00;28.15;;;5.70;;
56629;SDS011;42502;40.732;-74.254;2023-06-10T00:15:03;34.88;;;5.32;;
56629;SDS011;42502;40.732;-74.254;2023-06-10T00:17:05;19.65;;;4.47;;
56629;SDS011;42502;40.732;-74.254;2023-06-10T00:19:09;17.88;;;4.18;;
56629;SDS011;42502;40.732;-74.254;2023-06-10T00:21:18;10.88;;;2.95;;
56629;SDS011;42502;40.732;-74.254;2023-06-10T00:23:20;9.32;;;3.20;;
56629;SDS011;42502;40.732;-74.254;2023-06-10T00:25:22;16.45;;;3.10;;
56629;SDS011;42502;40.732;-74.254;2023-06-10T00:27:24;9.20;;;3.22;;
56629;SDS011;42502;40.732;-74.254;2023-06-10T00:29:25;11.93;;;2.97;;
56629;SDS011;42502;40.732;-74.254;2023-06-10T00:31:28;9.38;;;2.78;;
56629;SDS011;42502;40.732;-74.254;2023-06-10T00:33:30;12.75;;;2.80;;
56629;SDS011;42502;40.732;-74.254;2023-06-10T00:35:40;7.63;;;3.10;;
56629;SDS011;42502;40.732;-74.254;2023-06-10T00:37:40;6.18;;;2.47;;
56629;SDS011;42502;40.732;-74.254;2023-06-10T00:39:44;11.70;;;2.45;;
56629;SDS011;42502;40.732;-74.254;2023-06-10T00:41:45;6.22;;;2.00;;
56629;SDS011;42502;40.732;-74.254;2023-06-10T00:43:46;4.10;;;1.85;;
56629;SDS011;42502;40.732;-74.254;2023-06-10T00:45:46;8.05;;;2.15;;
56629;SDS011;42502;40.732;-74.254;2023-06-10T00:47:53;7.55;;;2.20;;
56629;SDS011;42502;40.732;-74.254;2023-06-10T00:49:57;6.90;;;2.05;;
56629;SDS011;42502;40.732;-74.254;2023-06-10T00:51:58;5.50;;;2.10;;
56629;SDS011;42502;40.732;-74.254;2023-06-10T00:54:03;5.38;;;1.75;;
56629;SDS011;42502;40.732;-74.254;2023-06-10T00:56:06;8.55;;;1.90;;
56629;SDS011;42502;40.732;-74.254;2023-06-10T00:58:07;4.15;;;2.10;;
56629;SDS011;42502;40.732;-74.254;2023-06-10T01:00:08;5.47;;;1.80;;
56629;SDS011;42502;40.732;-74.254;2023-06-10T01:02:10;16.00;;;2.42;;
56629;SDS011;42502;40.732;-74.254;2023-06-10T01:04:11;20.20;;;3.63;;
56629;SDS011;42502;40.732;-74.254;2023-06-10T01:06:22;20.08;;;2.80;;
56629;SDS011;42502;40.732;-74.254;2023-06-10T01:08:40;17.65;;;2.47;;
56629;SDS011;42502;40.732;-74.254;2023-06-10T01:10:53;26.88;;;3.00;;
56629;SDS011;42502;40.732;-74.254;2023-06-10T01:13:03;28.10;;;3.65;;
56629;SDS011;42502;40.732;-74.254;2023-06-10T01:15:08;21.33;;;2.50;;
56629;SDS011;42502;40.732;-74.254;2023-06-10T01:17:10;19.58;;;2.42;;
56629;SDS011;42502;40.732;-74.254;2023-06-10T01:19:16;18.67;;;2.15;;
56629;SDS011;42502;40.732;-74.254;2023-06-10T01:21:21;11.57;;;2.63;;
56629;SDS011;42502;40.732;-74.254;2023-06-10T01:23:24;24.40;;;2.65;;
56629;SDS011;42502;40.732;-74.254;2023-06-10T01:25:28;23.50;;;2.78;;
56629;SDS011;42502;40.732;-74.254;2023-06-10T01:27:36;36.60;;;3.90;;
56629;SDS011;42502;40.732;-74.254;2023-06-10T01:29:50;19.63;;;2.60;;
56629;SDS011;42502;40.732;-74.254;2023-06-10T01:34:10;16.15;;;2.78;;
56629;SDS011;42502;40.732;-74.254;2023-06-10T01:36:13;23.15;;;3.05;;
56629;SDS011;42502;40.732;-74.254;2023-06-10T01:38:16;12.55;;;2.20;;
56629;SDS011;42502;40.732;-74.254;2023-06-10T01:40:20;11.80;;;1.67;;
56629;SDS011;42502;40.732;-74.254;2023-06-10T01:42:21;12.10;;;2.63;;
56629;SDS011;42502;40.732;-74.254;2023-06-10T01:44:25;18.80;;;2.08;;
56629;SDS011;42502;40.732;-74.254;2023-06-10T01:46:29;11.88;;;1.95;;
56629;SDS011;42502;40.732;-74.254;2023-06-10T01:48:38;19.85;;;2.42;;
56629;SDS011;42502;40.732;-74.254;2023-06-10T01:50:45;14.88;;;2.50;;
56629;SDS011;42502;40.732;-74.254;2023-06-10T01:52:46;10.90;;;2.22;;
56629;SDS011;42502;40.732;-74.254;2023-06-10T01:54:49;13.43;;;2.33;;
56629;SDS011;42502;40.732;-74.254;2023-06-10T01:56:51;10.90;;;2.20;;
56629;SDS011;42502;40.732;-74.254;2023-06-10T01:58:52;13.48;;;2.17;;
56629;SDS011;42502;40.732;-74.254;2023-06-10T02:00:55;13.52;;;1.98;;
56629;SDS011;42502;40.732;-74.254;2023-06-10T02:02:56;8.52;;;1.83;;
56629;SDS011;42502;40.732;-74.254;2023-06-10T02:04:57;9.23;;;1.80;;
56629;SDS011;42502;40.732;-74.254;2023-06-10T02:06:58;7.13;;;1.67;;
56629;SDS011;42502;40.732;-74.254;2023-06-10T02:11:04;12.05;;;2.00;;
56629;SDS011;42502;40.732;-74.254;2023-06-10T02:13:07;14.70;;;1.70;;
56629;SDS011;42502;40.732;-74.254;2023-06-10T02:15:08;7.55;;;1.65;;
56629;SDS011;42502;40.732;-74.254;2023-06-10T02:17:09;28.00;;;2.25;;
56629;SDS011;42502;40.732;-74.254;2023-06-10T02:19:13;12.30;;;2.00;;
56629;SDS011;42502;40.732;-74.254;2023-06-10T02:21:14;15.68;;;1.92;;
56629;SDS011;42502;40.732;-74.254;2023-06-10T02:23:20;9.40;;;1.50;;
56629;SDS011;42502;40.732;-74.254;2023-06-10T02:25:21;11.93;;;1.85;;
56629;SDS011;42502;40.732;-74.254;2023-06-10T02:27:22;9.48;;;1.77;;
56629;SDS011;42502;40.732;-74.254;2023-06-10T02:29:23;9.43;;;1.75;;
56629;SDS011;42502;40.732;-74.254;2023-06-10T02:31:23;15.27;;;2.22;;
56629;SDS011;42502;40.732;-74.254;2023-06-10T02:33:25;9.93;;;2.25;;
56629;SDS011;42502;40.732;-74.254;2023-06-10T02:35:30;12.13;;;1.70;;
56629;SDS011;42502;40.732;-74.254;2023-06-10T02:37:30;11.27;;;1.60;;
56629;SDS011;42502;40.732;-74.254;2023-06-10T02:39:31;9.68;;;1.73;;
56629;SDS011;42502;40.732;-74.254;2023-06-10T02:41:32;9.27;;;1.45;;
56629;SDS011;42502;40.732;-74.254;2023-06-10T02:43:39;7.72;;;1.55;;
56629;SDS011;42502;40.732;-74.254;2023-06-10T02:45:42;8.65;;;1.63;;
56629;SDS011;42502;40.732;-74.254;2023-06-10T02:47:43;12.05;;;1.40;;
56629;SDS011;42502;40.732;-74.254;2023-06-10T02:49:44;9.52;;;1.48;;
56629;SDS011;42502;40.732;-74.254;2023-06-10T02:51:47;7.82;;;1.60;;
56629;SDS011;42502;40.732;-74.254;2023-06-10T02:53:53;9.52;;;1.38;;
56629;SDS011;42502;40.732;-74.254;2023-06-10T02:55:54;7.95;;;1.40;;
56629;SDS011;42502;40.732;-74.254;2023-06-10T02:57:57;9.75;;;1.65;;
56629;SDS011;42502;40.732;-74.254;2023-06-10T02:59:58;9.88;;;1.30;;
56629;SDS011;42502;40.732;-74.254;2023-06-10T03:01:59;6.47;;;1.17;;
56629;SDS011;42502;40.732;-74.254;2023-06-10T03:04:01;6.15;;;1.23;;
56629;SDS011;42502;40.732;-74.254;2023-06-10T03:06:02;8.80;;;1.45;;
56629;SDS011;42502;40.732;-74.254;2023-06-10T03:08:03;5.13;;;1.30;;
56629;SDS011;42502;40.732;-74.254;2023-06-10T03:10:07;5.38;;;1.40;;
56629;SDS011;42502;40.732;-74.254;2023-06-10T03:12:08;3.40;;;1.23;;
56629;SDS011;42502;40.732;-74.254;2023-06-10T03:14:10;2.60;;;1.10;;
56629;SDS011;42502;40.732;-74.254;2023-06-10T03:16:15;3.60;;;1.30;;
56629;SDS011;42502;40.732;-74.254;2023-06-10T03:18:18;5.68;;;1.30;;
56629;SDS011;42502;40.732;-74.254;2023-06-10T03:20:20;4.90;;;1.30;;
56629;SDS011;42502;40.732;-74.254;2023-06-10T03:22:25;5.43;;;1.38;;
56629;SDS011;42502;40.732;-74.254;2023-06-10T03:24:26;5.93;;;1.30;;
56629;SDS011;42502;40.732;-74.254;2023-06-10T03:26:27;3.83;;;1.25;;
56629;SDS011;42502;40.732;-74.254;2023-06-10T03:28:28;2.65;;;1.30;;
56629;SDS011;42502;40.732;-74.254;2023-06-10T03:30:28;3.10;;;1.00;;
56629;SDS011;42502;40.732;-74.254;2023-06-10T03:32:40;8.73;;;1.10;;
56629;SDS011;42502;40.732;-74.254;2023-06-10T03:34:41;4.35;;;1.30;;
56629;SDS011;42502;40.732;-74.254;2023-06-10T03:36:45;2.75;;;1.10;;
56629;SDS011;42502;40.732;-74.254;2023-06-10T03:38:48;4.25;;;1.10;;
56629;SDS011;42502;40.732;-74.254;2023-06-10T03:40:51;1.10;;;0.95;;
56629;SDS011;42502;40.732;-74.254;2023-06-10T03:42:52;4.95;;;1.30;;
56629;SDS011;42502;40.732;-74.254;2023-06-10T03:44:56;2.30;;;1.15;;
56629;SDS011;42502;40.732;-74.254;2023-06-10T03:46:56;2.38;;;1.13;;
56629;SDS011;42502;40.732;-74.254;2023-06-10T03:48:57;3.35;;;1.10;;
56629;SDS011;42502;40.732;-74.254;2023-06-10T03:51:00;3.10;;;1.30;;
56629;SDS011;42502;40.732;-74.254;2023-06-10T03:53:04;4.20;;;1.20;;
56629;SDS011;42502;40.732;-74.254;2023-06-10T03:55:05;2.42;;;0.98;;
56629;SDS011;42502;40.732;-74.254;2023-06-10T03:57:06;4.07;;;1.10;;
56629;SDS011;42502;40.732;-74.254;2023-06-10T03:59:09;2.40;;;1.17;;
56629;SDS011;42502;40.732;-74.254;2023-06-10T04:01:13;2.40;;;1.00;;
56629;SDS011;42502;40.732;-74.254;2023-06-10T04:03:17;1.30;;;1.00;;
56629;SDS011;42502;40.732;-74.254;2023-06-10T04:05:18;3.33;;;0.93;;
56629;SDS011;42502;40.732;-74.254;2023-06-10T04:07:23;3.05;;;1.10;;
56629;SDS011;42502;40.732;-74.254;2023-06-10T04:09:23;1.55;;;0.82;;
56629;SDS011;42502;40.732;-74.254;2023-06-10T04:11:24;1.88;;;1.13;;
56629;SDS011;42502;40.732;-74.254;2023-06-10T04:13:28;1.95;;;1.00;;
56629;SDS011;42502;40.732;-74.254;2023-06-10T04:15:29;3.38;;;1.20;;
56629;SDS011;42502;40.732;-74.254;2023-06-10T04:17:33;3.17;;;0.90;;
56629;SDS011;42502;40.732;-74.254;2023-06-10T04:19:37;3.28;;;1.20;;
56629;SDS011;42502;40.732;-74.254;2023-06-10T04:21:38;3.20;;;1.02;;
56629;SDS011;42502;40.732;-74.254;2023-06-10T04:23:39;1.27;;;1.10;;
56629;SDS011;42502;40.732;-74.254;2023-06-10T04:25:40;2.88;;;1.02;;
56629;SDS011;42502;40.732;-74.254;2023-06-10T04:27:41;1.33;;;0.85;;
56629;SDS011;42502;40.732;-74.254;2023-06-10T04:29:42;1.52;;;0.85;;
56629;SDS011;42502;40.732;-74.254;2023-06-10T04:31:45;1.67;;;1.00;;
56629;SDS011;42502;40.732;-74.254;2023-06-10T04:33:52;4.22;;;1.00;;
56629;SDS011;42502;40.732;-74.254;2023-06-10T04:35:56;1.65;;;1.00;;
56629;SDS011;42502;40.732;-74.254;2023-06-10T04:37:56;1.42;;;1.00;;
56629;SDS011;42502;40.732;-74.254;2023-06-10T04:39:57;1.13;;;1.00;;
56629;SDS011;42502;40.732;-74.254;2023-06-10T04:41:59;2.25;;;1.08;;
56629;SDS011;42502;40.732;-74.254;2023-06-10T04:44:00;1.27;;;0.90;;
56629;SDS011;42502;40.732;-74.254;2023-06-10T04:46:01;1.10;;;0.90;;
56629;SDS011;42502;40.732;-74.254;2023-06-10T04:48:05;2.08;;;0.80;;
56629;SDS011;42502;40.732;-74.254;2023-06-10T04:50:07;1.27;;;0.90;;
56629;SDS011;42502;40.732;-74.254;2023-06-10T04:52:08;1.75;;;0.90;;
56629;SDS011;42502;40.732;-74.254;2023-06-10T04:54:09;1.70;;;0.90;;
56629;SDS011;42502;40.732;-74.254;2023-06-10T04:56:10;1.77;;;1.00;;
56629;SDS011;42502;40.732;-74.254;2023-06-10T04:58:11;1.90;;;0.85;;
56629;SDS011;42502;40.732;-74.254;2023-06-10T05:00:12;1.17;;;1.00;;
56629;SDS011;42502;40.732;-74.254;2023-06-10T05:02:18;1.83;;;0.80;;
56629;SDS011;42502;40.732;-74.254;2023-06-10T05:04:19;1.75;;;1.05;;
56629;SDS011;42502;40.732;-74.254;2023-06-10T05:06:20;1.40;;;0.80;;
56629;SDS011;42502;40.732;-74.254;2023-06-10T05:08:20;1.48;;;1.00;;
56629;SDS011;42502;40.732;-74.254;2023-06-10T05:10:21;1.65;;;0.80;;
56629;SDS011;42502;40.732;-74.254;2023-06-10T05:12:22;1.65;;;0.85;;
56629;SDS011;42502;40.732;-74.254;2023-06-10T05:14:26;1.92;;;0.80;;
56629;SDS011;42502;40.732;-74.254;2023-06-10T05:16:27;1.30;;;0.80;;
56629;SDS011;42502;40.732;-74.254;2023-06-10T05:18:28;0.82;;;0.82;;
56629;SDS011;42502;40.732;-74.254;2023-06-10T05:20:29;1.23;;;0.90;;
56629;SDS011;42502;40.732;-74.254;2023-06-10T05:22:30;1.98;;;0.90;;
56629;SDS011;42502;40.732;-74.254;2023-06-10T05:24:30;2.00;;;0.90;;
56629;SDS011;42502;40.732;-74.254;2023-06-10T05:26:31;1.20;;;0.90;;
56629;SDS011;42502;40.732;-74.254;2023-06-10T05:28:33;1.27;;;0.90;;
56629;SDS011;42502;40.732;-74.254;2023-06-10T05:30:34;1.02;;;0.80;;
56629;SDS011;42502;40.732;-74.254;2023-06-10T05:32:34;1.10;;;0.80;;
56629;SDS011;42502;40.732;-74.254;2023-06-10T05:34:35;1.20;;;0.88;;
56629;SDS011;42502;40.732;-74.254;2023-06-10T05:36:41;1.30;;;1.00;;
56629;SDS011;42502;40.732;-74.254;2023-06-10T05:38:46;1.17;;;0.90;;
56629;SDS011;42502;40.732;-74.254;2023-06-10T05:40:47;2.15;;;0.80;;
56629;SDS011;42502;40.732;-74.254;2023-06-10T05:42:47;2.67;;;0.98;;
56629;SDS011;42502;40.732;-74.254;2023-06-10T05:44:48;1.13;;;0.70;;
56629;SDS011;42502;40.732;-74.254;2023-06-10T05:46:49;1.23;;;0.98;;
56629;SDS011;42502;40.732;-74.254;2023-06-10T05:48:50;0.98;;;0.88;;
56629;SDS011;42502;40.732;-74.254;2023-06-10T05:50:51;1.17;;;0.77;;
56629;SDS011;42502;40.732;-74.254;2023-06-10T05:52:52;1.42;;;0.90;;
56629;SDS011;42502;40.732;-74.254;2023-06-10T05:55:00;1.35;;;0.85;;
56629;SDS011;42502;40.732;-74.254;2023-06-10T05:57:00;2.00;;;0.85;;
56629;SDS011;42502;40.732;-74.254;2023-06-10T05:59:05;1.52;;;0.80;;
56629;SDS011;42502;40.732;-74.254;2023-06-10T06:01:06;1.05;;;0.80;;
56629;SDS011;42502;40.732;-74.254;2023-06-10T06:03:07;1.33;;;0.88;;
56629;SDS011;42502;40.732;-74.254;2023-06-10T06:05:09;2.17;;;0.85;;
56629;SDS011;42502;40.732;-74.254;2023-06-10T06:07:09;1.55;;;0.77;;
56629;SDS011;42502;40.732;-74.254;2023-06-10T06:09:16;0.90;;;0.80;;
56629;SDS011;42502;40.732;-74.254;2023-06-10T06:11:17;0.80;;;0.68;;
56629;SDS011;42502;40.732;-74.254;2023-06-10T06:13:24;0.90;;;0.80;;
56629;SDS011;42502;40.732;-74.254;2023-06-10T06:15:24;1.20;;;0.93;;
56629;SDS011;42502;40.732;-74.254;2023-06-10T06:17:28;1.55;;;0.80;;
56629;SDS011;42502;40.732;-74.254;2023-06-10T06:19:29;0.80;;;0.80;;
56629;SDS011;42502;40.732;-74.254;2023-06-10T06:21:29;1.35;;;0.82;;
56629;SDS011;42502;40.732;-74.254;2023-06-10T06:23:30;1.73;;;0.77;;
56629;SDS011;42502;40.732;-74.254;2023-06-10T06:25:31;1.15;;;0.70;;
56629;SDS011;42502;40.732;-74.254;2023-06-10T06:27:35;1.15;;;0.88;;
56629;SDS011;42502;40.732;-74.254;2023-06-10T06:29:36;1.30;;;0.70;;
56629;SDS011;42502;40.732;-74.254;2023-06-10T06:31:37;0.77;;;0.70;;
56629;SDS011;42502;40.732;-74.254;2023-06-10T06:33:38;1.00;;;0.85;;
56629;SDS011;42502;40.732;-74.254;2023-06-10T06:35:38;0.88;;;0.80;;
56629;SDS011;42502;40.732;-74.254;2023-06-10T06:37:43;1.13;;;0.80;;
56629;SDS011;42502;40.732;-74.254;2023-06-10T06:39:44;0.85;;;0.77;;
56629;SDS011;42502;40.732;-74.254;2023-06-10T06:41:50;1.85;;;0.85;;
56629;SDS011;42502;40.732;-74.254;2023-06-10T06:43:51;1.80;;;0.80;;
56629;SDS011;42502;40.732;-74.254;2023-06-10T06:45:52;0.80;;;0.80;;
56629;SDS011;42502;40.732;-74.254;2023-06-10T06:47:52;1.30;;;0.73;;
56629;SDS011;42502;40.732;-74.254;2023-06-10T06:49:56;1.52;;;0.77;;
56629;SDS011;42502;40.732;-74.254;2023-06-10T06:51:57;1.10;;;0.80;;
56629;SDS011;42502;40.732;-74.254;2023-06-10T06:54:00;1.58;;;0.90;;
56629;SDS011;42502;40.732;-74.254;2023-06-10T06:56:01;1.52;;;1.00;;
56629;SDS011;42502;40.732;-74.254;2023-06-10T06:58:03;1.00;;;0.90;;
56629;SDS011;42502;40.732;-74.254;2023-06-10T07:00:05;1.10;;;0.80;;
56629;SDS011;42502;40.732;-74.254;2023-06-10T07:02:08;1.85;;;0.80;;
56629;SDS011;42502;40.732;-74.254;2023-06-10T07:04:08;2.53;;;0.80;;
56629;SDS011;42502;40.732;-74.254;2023-06-10T07:06:09;1.10;;;0.80;;
56629;SDS011;42502;40.732;-74.254;2023-06-10T07:08:10;0.95;;;0.70;;
56629;SDS011;42502;40.732;-74.254;2023-06-10T07:10:12;1.20;;;0.77;;
56629;SDS011;42502;40.732;-74.254;2023-06-10T07:12:13;0.82;;;0.70;;
56629;SDS011;42502;40.732;-74.254;2023-06-10T07:14:17;0.80;;;0.70;;
56629;SDS011;42502;40.732;-74.254;2023-06-10T07:16:18;1.23;;;0.80;;
56629;SDS011;42502;40.732;-74.254;2023-06-10T07:18:22;0.90;;;0.80;;
56629;SDS011;42502;40.732;-74.254;2023-06-10T07:20:23;1.10;;;0.73;;
56629;SDS011;42502;40.732;-74.254;2023-06-10T07:22:24;1.52;;;0.80;;
56629;SDS011;42502;40.732;-74.254;2023-06-10T07:24:28;1.05;;;0.80;;
56629;SDS011;42502;40.732;-74.254;2023-06-10T07:26:28;0.80;;;0.80;;
56629;SDS011;42502;40.732;-74.254;2023-06-10T07:28:29;1.83;;;0.80;;
56629;SDS011;42502;40.732;-74.254;2023-06-10T07:30:30;0.90;;;0.80;;
56629;SDS011;42502;40.732;-74.254;2023-06-10T07:32:34;0.70;;;0.70;;
56629;SDS011;42502;40.732;-74.254;2023-06-10T07:34:34;0.80;;;0.70;;
56629;SDS011;42502;40.732;-74.254;2023-06-10T07:36:38;1.20;;;0.93;;
56629;SDS011;42502;40.732;-74.254;2023-06-10T07:38:39;1.00;;;0.90;;
56629;SDS011;42502;40.732;-74.254;2023-06-10T07:40:43;0.80;;;0.80;;
56629;SDS011;42502;40.732;-74.254;2023-06-10T07:42:43;1.27;;;0.80;;
56629;SDS011;42502;40.732;-74.254;2023-06-10T07:44:47;1.33;;;0.80;;
56629;SDS011;42502;40.732;-74.254;2023-06-10T07:46:51;1.10;;;0.80;;
56629;SDS011;42502;40.732;-74.254;2023-06-10T07:48:52;1.15;;;0.70;;
56629;SDS011;42502;40.732;-74.254;2023-06-10T07:50:54;1.90;;;0.80;;
56629;SDS011;42502;40.732;-74.254;2023-06-10T07:52:58;1.65;;;0.80;;
56629;SDS011;42502;40.732;-74.254;2023-06-10T07:55:02;0.93;;;0.82;;
56629;SDS011;42502;40.732;-74.254;2023-06-10T07:57:03;1.65;;;0.80;;
56629;SDS011;42502;40.732;-74.254;2023-06-10T07:59:13;1.20;;;0.80;;
56629;SDS011;42502;40.732;-74.254;2023-06-10T08:01:14;0.70;;;0.60;;
56629;SDS011;42502;40.732;-74.254;2023-06-10T08:03:15;0.80;;;0.70;;
56629;SDS011;42502;40.732;-74.254;2023-06-10T08:05:16;2.08;;;0.80;;
56629;SDS011;42502;40.732;-74.254;2023-06-10T08:07:17;1.20;;;0.93;;
56629;SDS011;42502;40.732;-74.254;2023-06-10T08:09:19;1.10;;;0.80;;
56629;SDS011;42502;40.732;-74.254;2023-06-10T08:11:21;1.33;;;0.70;;
56629;SDS011;42502;40.732;-74.254;2023-06-10T08:13:22;1.00;;;0.80;;
56629;SDS011;42502;40.732;-74.254;2023-06-10T08:15:23;0.80;;;0.68;;
56629;SDS011;42502;40.732;-74.254;2023-06-10T08:17:24;0.90;;;0.80;;
56629;SDS011;42502;40.732;-74.254;2023-06-10T08:19:25;4.43;;;0.80;;
56629;SDS011;42502;40.732;-74.254;2023-06-10T08:21:25;1.00;;;0.90;;
56629;SDS011;42502;40.732;-74.254;2023-06-10T08:23:28;1.80;;;0.90;;
56629;SDS011;42502;40.732;-74.254;2023-06-10T08:25:32;1.30;;;0.70;;
56629;SDS011;42502;40.732;-74.254;2023-06-10T08:27:32;1.00;;;0.80;;
56629;SDS011;42502;40.732;-74.254;2023-06-10T08:29:33;1.15;;;0.80;;
56629;SDS011;42502;40.732;-74.254;2023-06-10T08:31:37;0.82;;;0.75;;
56629;SDS011;42502;40.732;-74.254;2023-06-10T08:33:42;0.90;;;0.80;;
56629;SDS011;42502;40.732;-74.254;2023-06-10T08:35:43;2.40;;;0.80;;
56629;SDS011;42502;40.732;-74.254;2023-06-10T08:37:44;0.80;;;0.80;;
56629;SDS011;42502;40.732;-74.254;2023-06-10T08:39:45;1.25;;;0.88;;
56629;SDS011;42502;40.732;-74.254;2023-06-10T08:41:50;1.05;;;0.90;;
56629;SDS011;42502;40.732;-74.254;2023-06-10T08:44:04;0.75;;;0.70;;
56629;SDS011;42502;40.732;-74.254;2023-06-10T08:46:18;1.35;;;0.77;;
56629;SDS011;42502;40.732;-74.254;2023-06-10T08:48:19;1.08;;;0.70;;
56629;SDS011;42502;40.732;-74.254;2023-06-10T08:50:21;2.40;;;0.90;;
56629;SDS011;42502;40.732;-74.254;2023-06-10T08:52:22;0.85;;;0.77;;
56629;SDS011;42502;40.732;-74.254;2023-06-10T08:54:27;0.95;;;0.80;;
56629;SDS011;42502;40.732;-74.254;2023-06-10T08:56:31;2.35;;;0.90;;
56629;SDS011;42502;40.732;-74.254;2023-06-10T08:58:37;1.38;;;0.80;;
56629;SDS011;42502;40.732;-74.254;2023-06-10T09:00:41;0.90;;;0.80;;
56629;SDS011;42502;40.732;-74.254;2023-06-10T09:02:46;2.28;;;0.80;;
56629;SDS011;42502;40.732;-74.254;2023-06-10T09:04:47;0.90;;;0.70;;
56629;SDS011;42502;40.732;-74.254;2023-06-10T09:06:49;0.90;;;0.70;;
56629;SDS011;42502;40.732;-74.254;2023-06-10T09:08:54;0.77;;;0.70;;
56629;SDS011;42502;40.732;-74.254;2023-06-10T09:10:55;0.93;;;0.85;;
56629;SDS011;42502;40.732;-74.254;2023-06-10T09:12:57;0.90;;;0.80;;
56629;SDS011;42502;40.732;-74.254;2023-06-10T09:14:58;1.00;;;0.90;;
56629;SDS011;42502;40.732;-74.254;2023-06-10T09:16:59;1.15;;;0.80;;
56629;SDS011;42502;40.732;-74.254;2023-06-10T09:19:00;1.17;;;0.73;;
56629;SDS011;42502;40.732;-74.254;2023-06-10T09:21:07;1.13;;;0.93;;
56629;SDS011;42502;40.732;-74.254;2023-06-10T09:23:08;0.80;;;0.70;;
56629;SDS011;42502;40.732;-74.254;2023-06-10T09:25:13;1.02;;;0.90;;
56629;SDS011;42502;40.732;-74.254;2023-06-10T09:27:14;1.05;;;0.75;;
56629;SDS011;42502;40.732;-74.254;2023-06-10T09:29:15;0.90;;;0.80;;
56629;SDS011;42502;40.732;-74.254;2023-06-10T09:31:15;1.23;;;0.90;;
56629;SDS011;42502;40.732;-74.254;2023-06-10T09:33:18;1.08;;;0.98;;
56629;SDS011;42502;40.732;-74.254;2023-06-10T09:35:19;1.20;;;0.80;;
56629;SDS011;42502;40.732;-74.254;2023-06-10T09:37:26;1.98;;;0.70;;
56629;SDS011;42502;40.732;-74.254;2023-06-10T09:39:27;1.25;;;0.80;;
56629;SDS011;42502;40.732;-74.254;2023-06-10T09:41:39;2.00;;;0.80;;
56629;SDS011;42502;40.732;-74.254;2023-06-10T09:43:43;0.88;;;0.80;;
56629;SDS011;42502;40.732;-74.254;2023-06-10T09:45:49;1.35;;;0.82;;
56629;SDS011;42502;40.732;-74.254;2023-06-10T09:47:53;1.00;;;0.80;;
56629;SDS011;42502;40.732;-74.254;2023-06-10T09:49:58;1.20;;;0.80;;
56629;SDS011;42502;40.732;-74.254;2023-06-10T09:52:00;1.00;;;0.80;;
56629;SDS011;42502;40.732;-74.254;2023-06-10T09:54:02;1.88;;;1.00;;
56629;SDS011;42502;40.732;-74.254;2023-06-10T09:56:04;1.58;;;0.80;;
56629;SDS011;42502;40.732;-74.254;2023-06-10T09:58:08;1.38;;;0.82;;
56629;SDS011;42502;40.732;-74.254;2023-06-10T10:00:18;1.45;;;0.80;;
56629;SDS011;42502;40.732;-74.254;2023-06-10T10:02:19;1.75;;;1.00;;
56629;SDS011;42502;40.732;-74.254;2023-06-10T10:04:24;0.80;;;0.73;;
56629;SDS011;42502;40.732;-74.254;2023-06-10T10:06:34;1.05;;;0.90;;
56629;SDS011;42502;40.732;-74.254;2023-06-10T10:08:36;0.98;;;0.88;;
56629;SDS011;42502;40.732;-74.254;2023-06-10T10:10:37;10.25;;;0.90;;
56629;SDS011;42502;40.732;-74.254;2023-06-10T10:12:41;1.00;;;0.90;;
56629;SDS011;42502;40.732;-74.254;2023-06-10T10:14:45;2.45;;;0.90;;
56629;SDS011;42502;40.732;-74.254;2023-06-10T10:16:50;1.23;;;1.00;;
56629;SDS011;42502;40.732;-74.254;2023-06-10T10:18:54;2.63;;;0.90;;
56629;SDS011;42502;40.732;-74.254;2023-06-10T10:20:55;0.90;;;0.70;;
56629;SDS011;42502;40.732;-74.254;2023-06-10T10:23:02;1.00;;;0.83;;
56629;SDS011;42502;40.732;-74.254;2023-06-10T10:25:16;1.05;;;0.88;;
56629;SDS011;42502;40.732;-74.254;2023-06-10T10:29:31;2.40;;;0.80;;
56629;SDS011;42502;40.732;-74.254;2023-06-10T10:31:52;1.00;;;0.90;;
56629;SDS011;42502;40.732;-74.254;2023-06-10T10:33:59;1.27;;;0.90;;
56629;SDS011;42502;40.732;-74.254;2023-06-10T10:36:02;1.58;;;0.82;;
56629;SDS011;42502;40.732;-74.254;2023-06-10T10:38:04;1.73;;;0.90;;
56629;SDS011;42502;40.732;-74.254;2023-06-10T10:40:08;2.10;;;0.80;;
56629;SDS011;42502;40.732;-74.254;2023-06-10T10:42:15;2.10;;;0.82;;
56629;SDS011;42502;40.732;-74.254;2023-06-10T10:44:17;1.50;;;0.90;;
56629;SDS011;42502;40.732;-74.254;2023-06-10T10:46:20;1.58;;;0.90;;
56629;SDS011;42502;40.732;-74.254;2023-06-10T10:48:20;1.00;;;0.90;;
56629;SDS011;42502;40.732;-74.254;2023-06-10T10:50:21;1.75;;;0.90;;
56629;SDS011;42502;40.732;-74.254;2023-06-10T10:52:22;2.47;;;0.98;;
56629;SDS011;42502;40.732;-74.254;2023-06-10T10:54:33;2.03;;;1.05;;
56629;SDS011;42502;40.732;-74.254;2023-06-10T10:56:37;1.50;;;1.02;;
56629;SDS011;42502;40.732;-74.254;2023-06-10T10:58:38;3.17;;;0.90;;
56629;SDS011;42502;40.732;-74.254;2023-06-10T11:00:45;2.47;;;0.95;;
56629;SDS011;42502;40.732;-74.254;2023-06-10T11:02:46;1.15;;;0.90;;
56629;SDS011;42502;40.732;-74.254;2023-06-10T11:04:48;4.13;;;1.10;;
56629;SDS011;42502;40.732;-74.254;2023-06-10T11:06:55;3.88;;;1.10;;
56629;SDS011;42502;40.732;-74.254;2023-06-10T11:11:28;7.95;;;1.42;;
56629;SDS011;42502;40.732;-74.254;2023-06-10T11:13:31;6.13;;;1.20;;
56629;SDS011;42502;40.732;-74.254;2023-06-10T11:15:39;5.15;;;1.50;;
56629;SDS011;42502;40.732;-74.254;2023-06-10T11:20:13;3.88;;;1.50;;
56629;SDS011;42502;40.732;-74.254;2023-06-10T11:22:58;7.43;;;1.48;;
56629;SDS011;42502;40.732;-74.254;2023-06-10T11:24:59;4.25;;;1.67;;
56629;SDS011;42502;40.732;-74.254;2023-06-10T11:27:21;7.30;;;1.33;;
56629;SDS011;42502;40.732;-74.254;2023-06-10T11:29:24;4.82;;;1.38;;
56629;SDS011;42502;40.732;-74.254;2023-06-10T11:31:26;7.30;;;1.38;;
56629;SDS011;42502;40.732;-74.254;2023-06-10T11:33:27;4.45;;;1.50;;
56629;SDS011;42502;40.732;-74.254;2023-06-10T11:35:29;4.57;;;1.77;;
56629;SDS011;42502;40.732;-74.254;2023-06-10T11:37:30;5.72;;;1.52;;
56629;SDS011;42502;40.732;-74.254;2023-06-10T11:39:34;7.53;;;1.35;;
56629;SDS011;42502;40.732;-74.254;2023-06-10T11:41:35;5.55;;;1.85;;
56629;SDS011;42502;40.732;-74.254;2023-06-10T11:43:42;4.72;;;1.40;;
56629;SDS011;42502;40.732;-74.254;2023-06-10T11:45:47;6.32;;;1.67;;
56629;SDS011;42502;40.732;-74.254;2023-06-10T11:47:57;4.95;;;1.80;;
56629;SDS011;42502;40.732;-74.254;2023-06-10T11:50:01;6.57;;;1.45;;
56629;SDS011;42502;40.732;-74.254;2023-06-10T11:52:04;4.03;;;1.85;;
56629;SDS011;42502;40.732;-74.254;2023-06-10T11:54:05;3.50;;;1.80;;
56629;SDS011;42502;40.732;-74.254;2023-06-10T11:56:08;9.45;;;2.63;;
56629;SDS011;42502;40.732;-74.254;2023-06-10T12:00:23;6.20;;;1.92;;
56629;SDS011;42502;40.732;-74.254;2023-06-10T12:02:24;9.75;;;2.38;;
56629;SDS011;42502;40.732;-74.254;2023-06-10T12:04:25;10.00;;;2.35;;
56629;SDS011;42502;40.732;-74.254;2023-06-10T12:06:26;10.13;;;2.70;;
56629;SDS011;42502;40.732;-74.254;2023-06-10T12:08:28;5.78;;;2.00;;
56629;SDS011;42502;40.732;-74.254;2023-06-10T12:10:29;9.05;;;2.60;;